Time;durP1;ratioP1;P1;durP2;ratioP2;P2;SDS_P1;SDS_P2;PMS_P1;PMS_P2;Temp;Humidity;BMP_temperature;BMP_pressure;BME280_temperature;BME280_humidity;BME280_pressure;Samples;Min_cycle;Max_cycle;Signal;HPM_P1;HPM_P2
2020/12/20 00:00:53;;;;;;;22.70;2.97;;;;;;;7.71;86.81;99669.75;4932251;29;20040;-79
2020/12/20 00:03:18;;;;;;;26.77;2.15;;;;;;;7.65;86.66;99668.91;4914330;29;20131;-81
2020/12/20 00:05:44;;;;;;;16.85;2.25;;;;;;;7.62;86.78;99665.88;4894935;29;20055;-78
2020/12/20 00:08:09;;;;;;;7.18;2.10;;;;;;;7.66;87.52;99672.44;4933346;29;20027;-78
2020/12/20 00:10:34;;;;;;;18.13;3.50;;;;;;;7.64;87.25;99685.50;4928805;29;20039;-79
2020/12/20 00:13:00;;;;;;;13.95;3.00;;;;;;;7.65;87.68;99676.22;4926046;29;20487;-77
2020/12/20 00:15:26;;;;;;;11.38;1.63;;;;;;;7.64;87.38;99675.41;4933203;29;20031;-77
2020/12/20 00:17:52;;;;;;;18.88;2.88;;;;;;;7.58;86.92;99672.91;4927319;29;20043;-78
2020/12/20 00:20:18;;;;;;;11.18;1.85;;;;;;;7.54;86.43;99678.09;4936507;29;20030;-78
2020/12/20 00:22:45;;;;;;;14.40;1.70;;;;;;;7.47;85.84;99670.16;4929963;29;20032;-79
2020/12/20 00:25:11;;;;;;;18.42;2.40;;;;;;;7.42;86.37;99683.75;4930548;29;20019;-79
2020/12/20 00:27:37;;;;;;;15.45;1.55;;;;;;;7.40;86.77;99674.19;4926128;29;20419;-79
2020/12/20 00:30:04;;;;;;;14.40;2.17;;;;;;;7.39;87.05;99688.88;4906476;29;20023;-79
2020/12/20 00:32:29;;;;;;;20.58;2.22;;;;;;;7.27;86.39;99676.31;4942472;28;20043;-78
2020/12/20 00:34:54;;;;;;;9.68;1.70;;;;;;;7.29;86.20;99678.78;4929376;29;20030;-81
2020/12/20 00:37:21;;;;;;;20.08;2.13;;;;;;;7.26;86.95;99692.88;4916834;29;20443;-80
2020/12/20 00:39:46;;;;;;;11.07;2.92;;;;;;;7.21;86.60;99676.53;4927122;29;20536;-80
2020/12/20 00:42:12;;;;;;;15.00;1.88;;;;;;;7.15;87.20;99679.22;4914797;29;20036;-82
2020/12/20 00:44:37;;;;;;;10.18;1.60;;;;;;;7.09;86.76;99669.38;4932300;29;20027;-79
2020/12/20 00:47:04;;;;;;;26.42;2.47;;;;;;;7.16;86.87;99675.41;4896939;29;20115;-80
2020/12/20 00:49:31;;;;;;;14.55;1.73;;;;;;;7.15;86.44;99671.06;4925288;29;20028;-78
2020/12/20 00:51:59;;;;;;;17.42;1.92;;;;;;;7.11;85.28;99672.66;4929471;29;20047;-81
2020/12/20 00:54:26;;;;;;;11.25;1.90;;;;;;;7.16;85.21;99680.84;4933099;29;20032;-81
2020/12/20 00:56:51;;;;;;;9.48;1.70;;;;;;;7.12;85.68;99679.72;4930657;29;20024;-80
2020/12/20 00:59:17;;;;;;;4.78;1.38;;;;;;;7.11;85.53;99678.09;4912466;29;20036;-82
2020/12/20 01:01:42;;;;;;;9.32;1.45;;;;;;;7.08;85.13;99672.34;4911299;29;20044;-82
2020/12/20 01:04:08;;;;;;;18.52;1.88;;;;;;;7.08;84.56;99684.06;4919410;29;20126;-83
2020/12/20 01:06:33;;;;;;;10.95;1.73;;;;;;;7.07;84.34;99682.41;4927658;29;20424;-81
2020/12/20 01:09:00;;;;;;;19.83;1.52;;;;;;;7.01;84.53;99674.47;4927643;29;20070;-80
2020/12/20 01:11:26;;;;;;;5.40;1.35;;;;;;;6.96;85.16;99676.06;4915110;29;20103;-82
2020/12/20 01:13:52;;;;;;;19.75;2.22;;;;;;;6.97;84.51;99682.34;4917725;29;20032;-81
2020/12/20 01:16:22;;;;;;;8.18;1.20;;;;;;;6.95;84.36;99689.94;4933533;29;20442;-79
2020/12/20 01:18:48;;;;;;;13.88;1.95;;;;;;;6.89;84.25;99685.53;4933606;29;20024;-78
2020/12/20 01:21:17;;;;;;;12.70;1.10;;;;;;;6.89;84.95;99691.81;4929339;29;20083;-77
2020/12/20 01:23:43;;;;;;;10.18;1.25;;;;;;;6.85;84.41;99698.00;4922221;29;20119;-79
2020/12/20 01:26:09;;;;;;;20.65;2.22;;;;;;;6.82;84.20;99696.63;4927510;29;20035;-81
2020/12/20 01:28:35;;;;;;;10.52;1.35;;;;;;;6.82;84.58;99694.72;4931066;29;20023;-80
2020/12/20 01:31:03;;;;;;;7.43;1.70;;;;;;;6.78;84.44;99699.03;4930015;29;20052;-80
2020/12/20 01:33:29;;;;;;;11.18;1.63;;;;;;;6.80;84.74;99702.34;4914508;29;20036;-80
2020/12/20 01:35:54;;;;;;;8.73;0.98;;;;;;;6.80;84.37;99696.91;4908677;29;20133;-81
2020/12/20 01:38:20;;;;;;;2.15;0.80;;;;;;;6.75;83.88;99690.59;4909409;29;20036;-80
2020/12/20 01:40:52;;;;;;;10.43;1.23;;;;;;;6.78;84.76;99701.75;4897639;29;20513;-81
2020/12/20 01:43:18;;;;;;;5.65;1.70;;;;;;;6.79;84.67;99692.53;4927139;29;20542;-81
2020/12/20 01:45:44;;;;;;;8.18;1.23;;;;;;;6.75;84.18;99688.69;4933448;29;20028;-81
2020/12/20 01:48:10;;;;;;;3.42;0.60;;;;;;;6.77;83.89;99691.97;4895611;29;20055;-80
2020/12/20 01:50:36;;;;;;;2.42;0.63;;;;;;;6.79;83.84;99692.53;4924462;29;20039;-79
2020/12/20 01:53:04;;;;;;;10.07;0.98;;;;;;;6.78;84.73;99695.50;4915462;29;20488;-81
2020/12/20 01:55:30;;;;;;;3.55;0.60;;;;;;;6.81;83.90;99690.38;4925024;29;20063;-80
2020/12/20 01:57:56;;;;;;;2.03;0.52;;;;;;;6.75;84.43;99685.97;4927102;29;20036;-79
2020/12/20 02:00:22;;;;;;;5.45;0.90;;;;;;;6.75;84.00;99693.31;4930130;29;20024;-79
2020/12/20 02:02:47;;;;;;;1.20;0.60;;;;;;;6.69;84.56;99689.72;4925787;29;20020;-80
2020/12/20 02:05:13;;;;;;;8.80;1.55;;;;;;;6.62;84.15;99691.84;4935673;29;20130;-80
2020/12/20 02:07:39;;;;;;;5.95;1.75;;;;;;;6.60;83.91;99704.84;4909094;29;20036;-78
2020/12/20 02:10:05;;;;;;;14.25;1.42;;;;;;;6.54;83.87;99705.88;4921709;29;20080;-78
2020/12/20 02:12:30;;;;;;;1.77;1.10;;;;;;;6.54;84.67;99705.88;4935392;29;20090;-77
2020/12/20 02:14:56;;;;;;;9.45;2.28;;;;;;;6.54;84.69;99705.88;4904212;29;20027;-78
2020/12/20 02:17:21;;;;;;;3.05;0.85;;;;;;;6.51;84.15;99701.78;4924319;29;20034;-79
2020/12/20 02:19:47;;;;;;;6.57;0.95;;;;;;;6.53;84.20;99704.25;4932698;29;20040;-78
2020/12/20 02:22:13;;;;;;;5.07;0.68;;;;;;;6.54;83.95;99692.28;4910860;29;20064;-80
2020/12/20 02:24:39;;;;;;;2.70;0.40;;;;;;;6.52;84.93;99697.19;4929756;29;20106;-79
2020/12/20 02:27:05;;;;;;;4.22;0.57;;;;;;;6.54;84.38;99697.72;4913796;29;20118;-79
2020/12/20 02:29:31;;;;;;;0.80;0.43;;;;;;;6.52;84.94;99700.69;4912202;29;20463;-80
2020/12/20 02:31:58;;;;;;;5.55;1.23;;;;;;;6.53;85.00;99710.50;4921500;29;20067;-80
2020/12/20 02:34:23;;;;;;;7.28;1.25;;;;;;;6.58;84.77;99707.81;4910779;29;20032;-80
2020/12/20 02:36:49;;;;;;;5.05;1.02;;;;;;;6.63;85.29;99709.78;4909840;29;20031;-78
2020/12/20 02:39:15;;;;;;;4.07;0.93;;;;;;;6.72;84.60;99740.84;4930896;29;20107;-78
2020/12/20 02:41:40;;;;;;;6.03;1.35;;;;;;;6.74;85.42;99752.25;4931857;29;20363;-78
2020/12/20 02:44:06;;;;;;;16.10;1.02;;;;;;;6.70;86.51;99759.31;4903103;29;20047;-76
2020/12/20 02:46:34;;;;;;;2.65;0.47;;;;;;;6.61;87.18;99749.97;4915733;29;20122;-78
2020/12/20 02:49:01;;;;;;;1.30;0.30;;;;;;;6.55;88.36;99740.13;4919894;29;20038;-78
2020/12/20 02:51:27;;;;;;;5.53;0.57;;;;;;;6.51;88.57;99739.00;4898947;29;20059;-78
2020/12/20 02:53:53;;;;;;;0.50;0.10;;;;;;;6.45;88.68;99736.25;4923918;29;20024;-76
2020/12/20 02:56:22;;;;;;;3.38;0.30;;;;;;;6.42;89.20;99725.03;4930942;29;20067;-79
2020/12/20 02:58:49;;;;;;;1.73;0.40;;;;;;;6.36;89.13;99729.59;4918497;29;20032;-78
2020/12/20 03:01:14;;;;;;;0.80;0.30;;;;;;;6.34;89.10;99739.91;4915500;29;20067;-78
2020/12/20 03:03:40;;;;;;;1.35;0.30;;;;;;;6.31;89.02;99737.72;4927992;29;20063;-78
2020/12/20 03:06:05;;;;;;;0.30;0.10;;;;;;;6.29;88.78;99737.13;4921641;29;20031;-75
2020/12/20 03:08:31;;;;;;;0.55;0.10;;;;;;;6.25;89.56;99731.41;4912972;29;20035;-75
2020/12/20 03:10:59;;;;;;;0.80;0.20;;;;;;;6.30;88.99;99736.06;4943164;28;20062;-76
2020/12/20 03:13:24;;;;;;;0.10;0.00;;;;;;;6.30;89.47;99736.06;4923130;29;20051;-76
2020/12/20 03:15:49;;;;;;;0.40;0.00;;;;;;;6.31;89.27;99734.16;4907642;29;20127;-76
2020/12/20 03:18:15;;;;;;;0.47;0.10;;;;;;;6.35;89.22;99735.28;4901266;29;20086;-76
2020/12/20 03:20:40;;;;;;;0.00;0.00;;;;;;;6.35;89.52;99725.25;4930791;29;20108;-75
2020/12/20 03:23:06;;;;;;;0.05;0.00;;;;;;;6.40;88.91;99733.44;4895727;29;20035;-75
2020/12/20 03:25:32;;;;;;;0.00;0.00;;;;;;;6.42;88.82;99733.19;4913104;29;20024;-75
2020/12/20 03:27:58;;;;;;;0.00;0.00;;;;;;;6.46;89.67;99735.13;4902538;29;20027;-74
2020/12/20 03:30:24;;;;;;;0.90;0.00;;;;;;;6.48;88.70;99737.59;4918576;29;20390;-74
2020/12/20 03:32:49;;;;;;;1.88;0.25;;;;;;;6.50;89.50;99740.06;4930637;29;20059;-75
2020/12/20 03:35:15;;;;;;;0.35;0.10;;;;;;;6.46;88.93;99747.91;4922267;29;20040;-75
2020/12/20 03:37:51;;;;;;;0.95;0.20;;;;;;;6.37;88.60;99739.41;4916774;29;20028;-75
2020/12/20 03:40:19;;;;;;;2.17;0.35;;;;;;;6.24;87.66;99737.88;4930480;29;20039;-75
2020/12/20 03:42:46;;;;;;;1.90;0.17;;;;;;;6.15;87.78;99735.88;4908485;29;20032;-75
2020/12/20 03:45:12;;;;;;;3.10;0.20;;;;;;;6.04;88.32;99740.38;4902358;29;20130;-74
2020/12/20 03:47:38;;;;;;;0.98;0.43;;;;;;;5.95;87.99;99742.66;4901276;29;20103;-75
2020/12/20 03:50:03;;;;;;;2.20;0.20;;;;;;;5.88;88.25;99739.31;4901353;29;20156;-75
2020/12/20 03:52:29;;;;;;;4.07;0.52;;;;;;;5.82;87.86;99738.44;4913086;29;20115;-75
2020/12/20 03:54:55;;;;;;;0.70;0.35;;;;;;;5.75;88.01;99738.63;4921853;29;20032;-77
2020/12/20 03:57:20;;;;;;;0.80;0.28;;;;;;;5.71;87.65;99751.06;4909783;29;20044;-77
2020/12/20 03:59:46;;;;;;;0.70;0.20;;;;;;;5.68;88.30;99748.00;4907405;29;21176;-76
2020/12/20 04:02:11;;;;;;;0.30;0.03;;;;;;;5.60;88.35;99741.94;4917168;29;20023;-77
2020/12/20 04:04:36;;;;;;;0.20;0.20;;;;;;;5.57;87.70;99755.19;4916329;29;20028;-76
2020/12/20 04:07:02;;;;;;;1.65;0.20;;;;;;;5.52;87.60;99755.94;4928064;29;20114;-76
2020/12/20 04:09:27;;;;;;;1.75;0.30;;;;;;;5.40;88.38;99758.75;4919683;29;20036;-75
2020/12/20 04:11:52;;;;;;;3.10;0.38;;;;;;;5.45;87.62;99768.00;4927996;29;20497;-76
2020/12/20 04:14:18;;;;;;;0.05;0.05;;;;;;;5.42;88.27;99766.63;4924114;29;20036;-76
2020/12/20 04:16:43;;;;;;;0.22;0.20;;;;;;;5.42;87.98;99767.44;4911084;29;20044;-76
2020/12/20 04:19:09;;;;;;;0.43;0.10;;;;;;;5.37;88.25;99769.25;4931190;29;20035;-75
2020/12/20 04:21:34;;;;;;;0.30;0.10;;;;;;;5.39;88.19;99772.56;4923985;29;20094;-74
2020/12/20 04:23:59;;;;;;;0.68;0.10;;;;;;;5.40;88.64;99777.72;4929428;29;20107;-74
2020/12/20 04:26:25;;;;;;;0.45;0.10;;;;;;;5.43;88.92;99768.25;4929178;29;20122;-74
2020/12/20 04:28:50;;;;;;;2.75;0.40;;;;;;;5.42;88.95;99756.59;4932802;29;20020;-74
2020/12/20 04:31:16;;;;;;;1.58;0.30;;;;;;;5.49;88.61;99766.44;4906275;29;20068;-75
2020/12/20 04:33:41;;;;;;;2.08;0.30;;;;;;;5.50;88.36;99770.81;4919013;29;20105;-74
2020/12/20 04:36:07;;;;;;;0.93;0.30;;;;;;;5.48;88.42;99767.53;4939417;29;20058;-74
2020/12/20 04:38:34;;;;;;;0.47;0.15;;;;;;;5.47;88.68;99768.59;4926661;29;20080;-74
2020/12/20 04:41:00;;;;;;;1.08;0.10;;;;;;;5.41;87.82;99773.94;4911116;29;20052;-75
2020/12/20 04:43:26;;;;;;;0.40;0.10;;;;;;;5.34;88.65;99769.75;4912076;29;20465;-75
2020/12/20 04:45:53;;;;;;;0.57;0.30;;;;;;;5.33;88.17;99776.22;4928919;29;20051;-75
2020/12/20 04:48:25;;;;;;;0.68;0.20;;;;;;;5.30;88.03;99780.28;4929099;29;20114;-75
2020/12/20 04:50:50;;;;;;;3.35;0.20;;;;;;;5.29;88.13;99773.22;4902938;29;20028;-76
2020/12/20 04:53:17;;;;;;;0.32;0.10;;;;;;;5.31;88.65;99787.31;4890610;29;20111;-76
2020/12/20 04:55:45;;;;;;;0.35;0.20;;;;;;;5.28;88.09;99781.59;4919503;29;20032;-75
2020/12/20 04:58:11;;;;;;;4.93;0.22;;;;;;;5.27;88.05;99783.50;4898745;29;20065;-75
2020/12/20 05:00:37;;;;;;;2.28;0.28;;;;;;;5.28;88.59;99792.44;4887010;29;20040;-75
2020/12/20 05:03:02;;;;;;;0.52;0.20;;;;;;;5.28;88.44;99785.09;4908677;29;20058;-75
2020/12/20 05:05:28;;;;;;;0.75;0.08;;;;;;;5.30;88.50;99796.56;4885033;29;20125;-75
2020/12/20 05:07:54;;;;;;;1.65;0.10;;;;;;;5.32;88.11;99786.25;4926044;29;20518;-75
2020/12/20 05:10:20;;;;;;;0.20;0.00;;;;;;;5.32;88.71;99785.47;4917835;29;20519;-75
2020/12/20 05:12:45;;;;;;;1.73;0.28;;;;;;;5.32;88.81;99780.84;4930899;29;20110;-75
2020/12/20 05:15:25;;;;;;;0.20;0.20;;;;;;;5.32;87.80;99780.84;4896933;29;20100;-75
2020/12/20 05:18:23;;;;;;;0.73;0.38;;;;;;;5.33;88.04;99785.22;4920901;29;20628;-76
2020/12/20 05:20:48;;;;;;;2.80;0.50;;;;;;;5.31;88.54;99787.31;4898190;29;20062;-75
2020/12/20 05:23:16;;;;;;;2.75;0.20;;;;;;;5.29;88.53;99797.59;4871422;29;20032;-75
2020/12/20 05:25:43;;;;;;;5.82;0.38;;;;;;;5.27;88.09;99807.88;4913647;29;20040;-75
2020/12/20 05:28:10;;;;;;;5.70;0.30;;;;;;;5.26;88.19;99800.81;4903582;29;20123;-75
2020/12/20 05:30:36;;;;;;;1.05;0.25;;;;;;;5.26;88.44;99798.09;4917781;29;20043;-74
2020/12/20 05:33:03;;;;;;;0.85;0.20;;;;;;;5.27;88.23;99810.59;4927658;29;20085;-74
2020/12/20 05:35:28;;;;;;;1.88;0.30;;;;;;;5.33;88.22;99795.22;4918714;29;20358;-74
2020/12/20 05:37:54;;;;;;;0.10;0.10;;;;;;;5.33;88.12;99781.66;4890037;29;20103;-74
2020/12/20 05:40:27;;;;;;;2.58;0.20;;;;;;;5.34;88.04;99800.38;4871579;29;20427;-74
2020/12/20 05:43:01;;;;;;;1.02;0.30;;;;;;;5.32;88.00;99788.16;4932405;29;20043;-74
2020/12/20 05:45:30;;;;;;;2.50;0.30;;;;;;;5.32;88.63;99782.75;4933486;29;20027;-75
2020/12/20 05:47:56;;;;;;;0.63;0.20;;;;;;;5.32;88.05;99786.25;4933401;29;20031;-75
2020/12/20 05:50:27;;;;;;;2.85;0.40;;;;;;;5.31;88.04;99781.91;4903648;29;20106;-74
2020/12/20 05:53:00;;;;;;;1.80;0.30;;;;;;;5.29;87.86;99778.63;4956898;29;20023;-74
2020/12/20 05:55:37;;;;;;;0.70;0.25;;;;;;;5.29;88.14;99778.63;4947415;29;20023;-75
2020/12/20 05:58:14;;;;;;;4.28;0.38;;;;;;;5.26;88.20;99789.97;4934695;29;20039;-75
2020/12/20 06:00:41;;;;;;;3.85;0.55;;;;;;;5.23;88.39;99785.03;4925033;29;20027;-75
2020/12/20 06:03:07;;;;;;;0.68;0.30;;;;;;;5.21;88.30;99789.88;4920578;29;20028;-74
2020/12/20 06:05:35;;;;;;;2.20;0.25;;;;;;;5.20;88.95;99799.09;4904854;29;20028;-75
2020/12/20 06:08:15;;;;;;;2.85;0.32;;;;;;;5.18;88.60;99798.50;4908968;29;20391;-75
2020/12/20 06:10:45;;;;;;;0.20;0.10;;;;;;;5.18;88.38;99803.91;4903138;29;20024;-75
2020/12/20 06:13:13;;;;;;;0.47;0.10;;;;;;;5.17;88.55;99808.53;4902990;29;20071;-74
2020/12/20 06:15:41;;;;;;;3.28;0.10;;;;;;;5.18;88.22;99798.50;4929175;29;20016;-74
2020/12/20 06:18:09;;;;;;;0.20;0.08;;;;;;;5.17;88.57;99813.13;4915733;29;20115;-74
2020/12/20 06:20:57;;;;;;;2.45;0.15;;;;;;;5.18;88.51;99810.19;4936528;29;20026;-75
2020/12/20 06:23:28;;;;;;;0.10;0.03;;;;;;;5.17;87.92;99815.81;4907738;29;20047;-74
2020/12/20 06:25:54;;;;;;;0.10;0.00;;;;;;;5.12;87.94;99821.16;4923931;29;20028;-75
2020/12/20 06:28:26;;;;;;;0.00;0.00;;;;;;;5.07;87.74;99822.72;4905975;29;20060;-75
2020/12/20 06:30:53;;;;;;;0.00;0.00;;;;;;;5.00;86.86;99822.06;4924640;29;20036;-72
2020/12/20 06:33:36;;;;;;;0.00;0.00;;;;;;;4.94;87.31;99830.34;4915129;29;20051;-73
2020/12/20 06:36:22;;;;;;;0.00;0.00;;;;;;;4.86;86.79;99826.13;4929745;29;20043;-73
2020/12/20 06:38:54;;;;;;;0.10;0.00;;;;;;;4.80;86.89;99827.91;4889503;29;20048;-75
2020/12/20 06:41:40;;;;;;;0.00;0.00;;;;;;;4.75;86.60;99830.53;4889130;29;20122;-74
2020/12/20 06:44:15;;;;;;;0.00;0.00;;;;;;;4.70;86.78;99836.69;4912241;29;20035;-73
2020/12/20 06:46:42;;;;;;;0.00;0.00;;;;;;;4.63;86.81;99836.00;4925638;29;20028;-74
2020/12/20 06:49:38;;;;;;;0.13;0.00;;;;;;;4.62;86.97;99836.25;4922372;29;20020;-74
2020/12/20 06:52:29;;;;;;;0.00;0.00;;;;;;;4.58;87.34;99833.19;4929701;29;20098;-74
2020/12/20 06:55:10;;;;;;;0.47;0.10;;;;;;;4.59;87.07;99834.84;4928340;29;20043;-75
2020/12/20 06:57:56;;;;;;;0.00;0.00;;;;;;;4.58;87.01;99832.38;4929162;29;20560;-76
2020/12/20 07:00:40;;;;;;;0.30;0.00;;;;;;;4.62;87.70;99834.34;4929420;29;20038;-75
2020/12/20 07:03:05;;;;;;;0.00;0.00;;;;;;;4.70;88.07;99831.28;4911273;29;20043;-75
2020/12/20 07:05:41;;;;;;;0.10;0.10;;;;;;;4.78;88.00;99815.69;4906738;29;20347;-74
2020/12/20 07:08:31;;;;;;;0.30;0.05;;;;;;;4.80;87.86;99822.50;4910120;29;20036;-74
2020/12/20 07:10:58;;;;;;;0.43;0.43;;;;;;;4.84;87.67;99820.13;4910704;29;20065;-73
2020/12/20 07:13:38;;;;;;;0.10;0.10;;;;;;;4.84;88.15;99814.72;4928239;29;20172;-74
2020/12/20 07:16:11;;;;;;;0.17;0.08;;;;;;;4.87;87.73;99825.06;4918972;29;20042;-74
2020/12/20 07:18:49;;;;;;;1.48;0.20;;;;;;;4.85;87.45;99822.59;4929566;29;20106;-74
2020/12/20 07:21:17;;;;;;;0.05;0.05;;;;;;;4.86;87.47;99831.53;4929768;29;20035;-73
2020/12/20 07:23:45;;;;;;;0.30;0.10;;;;;;;4.84;87.31;99830.97;4910577;29;20159;-74
2020/12/20 07:26:11;;;;;;;0.20;0.00;;;;;;;4.82;87.58;99842.06;4922621;29;20095;-74
2020/12/20 07:28:37;;;;;;;0.00;0.00;;;;;;;4.81;87.67;99850.44;4919145;29;20171;-74
2020/12/20 07:31:02;;;;;;;0.10;0.08;;;;;;;4.78;87.45;99856.34;4912849;29;20024;-74
2020/12/20 07:33:28;;;;;;;0.30;0.20;;;;;;;4.80;87.67;99862.31;4896370;29;20043;-76
2020/12/20 07:35:53;;;;;;;0.30;0.30;;;;;;;4.77;87.47;99863.63;4924798;29;20102;-75
2020/12/20 07:38:19;;;;;;;0.45;0.15;;;;;;;4.79;87.27;99871.50;4920492;29;20106;-76
2020/12/20 07:40:44;;;;;;;0.43;0.10;;;;;;;4.76;87.25;99869.28;4923966;29;20133;-74
2020/12/20 07:43:10;;;;;;;1.40;0.50;;;;;;;4.83;87.86;99883.50;4912484;29;20035;-75
2020/12/20 07:45:35;;;;;;;0.00;0.00;;;;;;;4.87;87.93;99876.53;4887710;29;20039;-75
2020/12/20 07:48:01;;;;;;;0.93;0.30;;;;;;;4.93;88.16;99878.28;4905702;29;20036;-74
2020/12/20 07:50:26;;;;;;;0.65;0.30;;;;;;;4.99;88.05;99876.50;4890223;29;20035;-74
2020/12/20 07:52:52;;;;;;;0.60;0.22;;;;;;;5.02;87.78;99881.41;4931909;29;20102;-75
2020/12/20 07:55:18;;;;;;;4.22;0.30;;;;;;;5.05;88.44;99881.78;4924097;29;20387;-75
2020/12/20 07:57:48;;;;;;;3.00;0.45;;;;;;;5.05;88.49;99887.19;4928896;29;20028;-74
2020/12/20 08:00:17;;;;;;;1.55;0.40;;;;;;;5.12;88.53;99875.38;4899172;29;20032;-75
2020/12/20 08:02:42;;;;;;;0.38;0.20;;;;;;;5.14;88.49;99892.22;4914057;29;20036;-74
2020/12/20 08:05:17;;;;;;;1.33;0.35;;;;;;;5.14;88.14;99889.50;4921844;29;20024;-75
2020/12/20 08:07:42;;;;;;;2.60;0.38;;;;;;;5.18;88.37;99896.94;4925640;29;20804;-75
2020/12/20 08:10:08;;;;;;;8.85;0.60;;;;;;;5.22;88.23;99900.78;4914787;29;20052;-75
2020/12/20 08:12:33;;;;;;;0.45;0.15;;;;;;;5.22;87.92;99897.25;4914704;29;20050;-75
2020/12/20 08:15:06;;;;;;;2.38;0.30;;;;;;;5.22;88.03;99908.09;4892980;29;20703;-76
2020/12/20 08:17:33;;;;;;;3.63;1.42;;;;;;;5.21;88.08;99917.28;4926728;29;20026;-76
2020/12/20 08:20:06;;;;;;;11.30;1.15;;;;;;;5.22;88.10;99913.50;4931600;29;20028;-75
2020/12/20 08:22:32;;;;;;;2.05;1.00;;;;;;;5.19;88.42;99919.44;4923278;29;20027;-75
2020/12/20 08:24:59;;;;;;;2.03;0.70;;;;;;;5.20;88.39;99926.50;4911240;29;20055;-75
2020/12/20 08:27:32;;;;;;;5.30;1.40;;;;;;;5.18;88.77;99923.19;4930783;29;20040;-76
2020/12/20 08:30:00;;;;;;;8.88;1.13;;;;;;;5.20;88.99;99929.22;4919754;29;20035;-75
2020/12/20 08:32:43;;;;;;;2.08;0.50;;;;;;;5.20;88.68;99918.38;4921408;29;20089;-76
2020/12/20 08:35:21;;;;;;;4.95;1.10;;;;;;;5.22;89.05;99913.50;4921461;29;20020;-75
2020/12/20 08:37:55;;;;;;;6.13;0.55;;;;;;;5.26;88.99;99925.53;4923995;29;20114;-75
2020/12/20 08:40:21;;;;;;;11.05;0.95;;;;;;;5.27;88.77;99932.59;4925376;29;20030;-75
2020/12/20 08:42:47;;;;;;;9.15;1.35;;;;;;;5.33;89.29;99925.34;4916263;29;20036;-75
2020/12/20 08:45:21;;;;;;;2.88;0.77;;;;;;;5.39;89.19;99924.41;4910533;29;20423;-76
2020/12/20 08:47:49;;;;;;;3.35;0.77;;;;;;;5.40;89.21;99932.28;4928769;29;20032;-75
2020/12/20 08:50:22;;;;;;;5.18;1.15;;;;;;;5.46;88.75;99935.06;4911608;29;20474;-76
2020/12/20 08:52:47;;;;;;;11.60;0.93;;;;;;;5.52;88.93;99934.09;4917754;29;20063;-73
2020/12/20 08:55:13;;;;;;;4.70;0.98;;;;;;;5.60;88.85;99933.69;4929784;29;20143;-76
2020/12/20 08:57:38;;;;;;;7.28;0.93;;;;;;;5.65;88.53;99941.94;4928742;29;20023;-74
2020/12/20 09:00:13;;;;;;;4.53;1.48;;;;;;;5.63;88.48;99938.63;4894420;29;20031;-75
2020/12/20 09:02:39;;;;;;;8.97;1.40;;;;;;;5.64;88.61;99936.75;4937484;29;20102;-74
2020/12/20 09:05:12;;;;;;;7.10;0.98;;;;;;;5.67;88.75;99937.09;4932378;29;20024;-74
2020/12/20 09:07:42;;;;;;;2.78;0.75;;;;;;;5.72;88.80;99939.91;4935274;29;20042;-76
2020/12/20 09:10:14;;;;;;;7.28;0.50;;;;;;;5.80;88.71;99943.25;4898290;29;20031;-74
2020/12/20 09:12:54;;;;;;;3.80;0.50;;;;;;;5.88;88.88;99956.41;4913077;29;20492;-74
2020/12/20 09:15:29;;;;;;;2.75;0.60;;;;;;;5.96;88.68;99958.72;4917344;29;20042;-77
2020/12/20 09:17:56;;;;;;;0.85;0.40;;;;;;;6.00;88.10;99962.63;4922176;29;20434;-76
2020/12/20 09:20:24;;;;;;;4.75;0.82;;;;;;;6.06;88.46;99966.22;4919870;29;20039;-76
2020/12/20 09:22:52;;;;;;;6.60;0.95;;;;;;;6.10;89.02;99968.22;4922679;29;20051;-75
2020/12/20 09:25:40;;;;;;;6.30;0.98;;;;;;;6.23;89.04;99972.47;4928583;29;20062;-73
2020/12/20 09:28:14;;;;;;;11.55;1.13;;;;;;;6.34;88.82;99978.88;4903162;29;20039;-75
2020/12/20 09:30:50;;;;;;;4.50;0.80;;;;;;;6.53;88.81;99978.63;4922480;29;20136;-73
2020/12/20 09:33:36;;;;;;;15.82;1.05;;;;;;;6.64;89.20;99975.78;4929234;29;20056;-76
2020/12/20 09:36:06;;;;;;;3.92;0.88;;;;;;;6.67;88.21;99987.22;4928891;29;20523;-72
2020/12/20 09:38:44;;;;;;;7.22;0.77;;;;;;;6.72;88.69;99985.41;4910446;29;20099;-73
2020/12/20 09:41:12;;;;;;;3.38;0.63;;;;;;;6.82;89.00;99980.09;4920562;29;20031;-74
2020/12/20 09:43:40;;;;;;;7.82;2.20;;;;;;;7.39;90.06;99996.25;4922260;29;20024;-73
2020/12/20 09:46:06;;;;;;;4.88;0.60;;;;;;;8.12;89.93;99991.25;4910470;29;20130;-73
2020/12/20 09:48:32;;;;;;;5.25;0.93;;;;;;;8.83;88.34;100005.63;4919242;29;20474;-73
2020/12/20 09:50:57;;;;;;;11.13;1.38;;;;;;;9.47;85.87;100009.97;4931146;29;20040;-74
2020/12/20 09:53:23;;;;;;;1.42;0.63;;;;;;;9.74;84.84;100011.69;4916955;29;20058;-74
2020/12/20 09:55:48;;;;;;;6.35;0.40;;;;;;;9.93;83.73;100006.53;4932702;29;20039;-72
2020/12/20 09:58:15;;;;;;;5.82;0.43;;;;;;;10.38;83.58;100004.06;4915584;29;20028;-73
2020/12/20 10:00:42;;;;;;;5.00;0.43;;;;;;;10.96;82.38;100018.16;4921509;29;20045;-75
2020/12/20 10:03:08;;;;;;;2.45;0.52;;;;;;;11.48;80.87;100013.31;4914605;29;20111;-76
2020/12/20 10:05:34;;;;;;;1.50;0.57;;;;;;;11.90;79.42;100024.84;4918475;29;20075;-74
2020/12/20 10:08:00;;;;;;;5.25;0.38;;;;;;;12.20;78.70;100023.78;4905018;29;21228;-74
2020/12/20 10:10:27;;;;;;;1.55;0.55;;;;;;;12.53;78.11;100039.72;4919878;29;20047;-75
2020/12/20 10:12:53;;;;;;;1.42;0.70;;;;;;;12.81;76.60;100032.56;4928418;29;20039;-75
2020/12/20 10:15:18;;;;;;;3.80;0.70;;;;;;;13.10;76.49;100032.53;4913192;29;20036;-73
2020/12/20 10:17:45;;;;;;;4.13;0.60;;;;;;;13.48;76.27;100033.72;4930210;29;20038;-76
2020/12/20 10:20:10;;;;;;;2.70;0.30;;;;;;;13.78;74.52;100038.81;4924039;29;20070;-74
2020/12/20 10:22:36;;;;;;;7.80;0.70;;;;;;;14.04;73.71;100035.69;4913055;29;20064;-75
2020/12/20 10:25:03;;;;;;;5.00;1.33;;;;;;;14.20;73.49;100027.19;4927345;29;20446;-74
2020/12/20 10:27:29;;;;;;;5.15;0.32;;;;;;;14.32;72.58;100035.78;4930126;29;21671;-74
2020/12/20 10:29:54;;;;;;;2.53;0.32;;;;;;;14.47;71.56;100040.19;4907366;29;20032;-74
2020/12/20 10:32:19;;;;;;;3.00;0.80;;;;;;;14.59;71.00;100037.00;4915281;29;20102;-73
2020/12/20 10:34:45;;;;;;;1.55;0.55;;;;;;;14.70;71.64;100035.69;4930399;29;20062;-72
2020/12/20 10:37:10;;;;;;;2.70;0.70;;;;;;;14.87;69.90;100028.81;4912234;29;20764;-74
2020/12/20 10:39:35;;;;;;;5.95;0.68;;;;;;;15.03;70.29;100030.16;4909292;29;20038;-74
2020/12/20 10:42:01;;;;;;;3.17;0.60;;;;;;;15.29;70.03;100033.19;4928193;29;20036;-74
2020/12/20 10:44:28;;;;;;;3.78;1.00;;;;;;;15.52;69.98;100027.75;4913876;29;20127;-74
2020/12/20 10:46:54;;;;;;;4.60;0.90;;;;;;;15.74;68.67;100035.28;4915578;29;20505;-75
2020/12/20 10:49:20;;;;;;;5.78;0.77;;;;;;;15.78;67.15;100038.22;4928721;29;20035;-74
2020/12/20 10:51:52;;;;;;;3.60;1.00;;;;;;;15.90;67.43;100034.94;4928869;29;20067;-76
2020/12/20 10:54:19;;;;;;;2.58;0.60;;;;;;;16.10;66.20;100034.47;4947236;28;20030;-74
2020/12/20 10:56:55;;;;;;;1.00;0.57;;;;;;;16.48;63.63;100038.78;4910195;29;20137;-75
2020/12/20 10:59:21;;;;;;;6.30;1.27;;;;;;;16.65;61.62;100046.38;4919864;29;20068;-76
2020/12/20 11:01:49;;;;;;;5.43;0.52;;;;;;;16.86;62.46;100047.44;4908732;29;20028;-74
2020/12/20 11:04:14;;;;;;;5.20;0.60;;;;;;;17.20;59.53;100047.91;4919431;29;20023;-74
2020/12/20 11:06:40;;;;;;;2.40;0.70;;;;;;;17.32;57.23;100052.84;4899076;29;20455;-76
2020/12/20 11:09:09;;;;;;;1.50;0.52;;;;;;;17.44;57.70;100056.63;4910723;29;20040;-76
2020/12/20 11:11:34;;;;;;;1.73;0.47;;;;;;;17.70;56.96;100052.28;4913760;29;20075;-76
2020/12/20 11:14:02;;;;;;;3.65;0.50;;;;;;;18.04;54.94;100056.25;4937942;28;20024;-74
2020/12/20 11:16:28;;;;;;;2.88;0.73;;;;;;;18.27;54.03;100063.22;4930347;29;20028;-75
2020/12/20 11:18:53;;;;;;;2.72;0.38;;;;;;;18.37;51.79;100066.78;4918859;29;20058;-75
2020/12/20 11:21:19;;;;;;;1.58;1.00;;;;;;;18.28;52.33;100056.56;4921935;29;20032;-75
2020/12/20 11:23:47;;;;;;;2.15;0.77;;;;;;;18.13;53.51;100060.63;4921775;29;20036;-74
2020/12/20 11:26:19;;;;;;;2.40;0.60;;;;;;;18.11;52.54;100062.09;4927880;29;20028;-74
2020/12/20 11:28:47;;;;;;;1.17;0.40;;;;;;;18.07;55.77;100055.59;4902635;29;20027;-76
2020/12/20 11:31:15;;;;;;;2.40;0.85;;;;;;;18.69;52.51;100059.94;4935121;28;20043;-75
2020/12/20 11:33:41;;;;;;;2.45;0.82;;;;;;;19.25;50.43;100059.91;4909216;29;20024;-76
2020/12/20 11:36:07;;;;;;;1.42;0.45;;;;;;;19.67;47.24;100043.34;4917407;29;20490;-76
2020/12/20 11:38:34;;;;;;;2.05;0.32;;;;;;;19.20;44.88;100046.22;4916020;29;20118;-75
2020/12/20 11:41:01;;;;;;;1.58;0.50;;;;;;;17.83;45.37;100067.09;4879721;29;20070;-75
2020/12/20 11:43:26;;;;;;;0.57;0.38;;;;;;;16.57;48.26;100051.50;4920729;29;20039;-73